KPDX/PDX METAR and TAF weather

Enter ICAO airport designator
Station Type Date Time Source
KPDX METAR 2018/12/13 21:53 UTC NOAA

KPDX 132153Z 11009KT 10SM SCT065 BKN250 12/04 A3010 RMK AO2 SLP191 T01170039


Station Type Date Time Source
KPDX Decoded METAR 2018/12/13 21:53 UTC NOAA

PORTLAND INTERNATIONAL AIRPORT, OR, United States (KPDX) 45-35N 122-36W 7M
Dec 13, 2018 - 04:53 PM EST / 2018.12.13 2153 UTC
Wind: from the ESE (110 degrees) at 10 MPH (9 KT):0
Visibility: 10 mile(s):0
Sky conditions: mostly cloudy
Temperature: 53.1 F (11.7 C)
Dew Point: 39.0 F (3.9 C)
Relative Humidity: 58%
Pressure (altimeter): 30.1 in. Hg (1019 hPa)
ob: KPDX 132153Z 11009KT 10SM SCT065 BKN250 12/04 A3010 RMK AO2 SLP191 T01170039
cycle: 22

Station Type Date Time Source
KPDX TAF 2018/12/13 21:54 UTC NOAA

TAF
AMD KPDX 132051Z 1321/1418 11010KT P6SM BKN060 BKN090
FM141200 11013KT P6SM OVC250
FM141700 15006KT P6SM OVC100


Example: see airport list